Martin, Oklahoma
Current Conditions -  °F | °C
As of 1:53 PM on Friday 28 Nov 2014 (Local Time) from KMKO Reporting Station
Clear Clear  
Wind Chill: 64°   Ceiling: Unl
Heat Index: 64°   Visibility: 10mi
Dew Point: 38°   Wind: 21mph
Humidity: 38%   Direction: 200°SSW
Pressure: 30"   Gusts: NA
Location:  35.6818°N, 95.3578°W
Report Text: KMKO 281953Z AUTO 20018KT 10SM CLR 18/03 A3000 RMK AO2 PK WND 20029/1902 SLP159 T01780033
Loading
Personal Weather Stations






























Interactive Weather Map New forecast layout! Learn more

10-Day Weather Forecast

Advertisements
Track Severe Weather on mobile